sensor_id;sensor_type;location;lat;lon;timestamp;pressure;altitude;pressure_sealevel;temperature;humidity
19150;BME280;9707;49.158;8.632;2022-11-23T00:01:46;99044.22;;;18.75;37.34
19150;BME280;9707;49.158;8.632;2022-11-23T00:04:12;99036.94;;;18.75;37.00
19150;BME280;9707;49.158;8.632;2022-11-23T00:06:38;99037.13;;;18.74;37.10
19150;BME280;9707;49.158;8.632;2022-11-23T00:09:05;99029.84;;;18.74;37.12
19150;BME280;9707;49.158;8.632;2022-11-23T00:11:33;99036.13;;;18.75;37.34
19150;BME280;9707;49.158;8.632;2022-11-23T00:13:58;99036.94;;;18.75;37.15
19150;BME280;9707;49.158;8.632;2022-11-23T00:16:26;99046.19;;;18.73;36.73
19150;BME280;9707;49.158;8.632;2022-11-23T00:18:54;99036.38;;;18.72;37.03
19150;BME280;9707;49.158;8.632;2022-11-23T00:21:22;99026.47;;;18.72;37.21
19150;BME280;9707;49.158;8.632;2022-11-23T00:23:48;99032.69;;;18.73;37.38
19150;BME280;9707;49.158;8.632;2022-11-23T00:26:15;99026.31;;;18.74;37.14
19150;BME280;9707;49.158;8.632;2022-11-23T00:28:41;99027.28;;;18.73;36.96
19150;BME280;9707;49.158;8.632;2022-11-23T00:31:14;99028.28;;;18.72;36.91
19150;BME280;9707;49.158;8.632;2022-11-23T00:33:40;99023.91;;;18.71;37.14
19150;BME280;9707;49.158;8.632;2022-11-23T00:36:12;99033.13;;;18.68;36.98
19150;BME280;9707;49.158;8.632;2022-11-23T00:38:39;99042.09;;;18.69;36.98
19150;BME280;9707;49.158;8.632;2022-11-23T00:41:16;99038.78;;;18.65;37.92
19150;BME280;9707;49.158;8.632;2022-11-23T00:43:42;99038.66;;;18.67;37.67
19150;BME280;9707;49.158;8.632;2022-11-23T00:46:18;99037.81;;;18.66;37.13
19150;BME280;9707;49.158;8.632;2022-11-23T00:48:46;99031.44;;;18.67;37.50
19150;BME280;9707;49.158;8.632;2022-11-23T00:51:14;99034.13;;;18.67;37.08
19150;BME280;9707;49.158;8.632;2022-11-23T00:53:40;99042.22;;;18.67;37.42
19150;BME280;9707;49.158;8.632;2022-11-23T00:56:06;99043.06;;;18.68;37.11
19150;BME280;9707;49.158;8.632;2022-11-23T00:58:32;99039.53;;;18.67;36.97
19150;BME280;9707;49.158;8.632;2022-11-23T01:03:29;99042.09;;;18.69;37.25
19150;BME280;9707;49.158;8.632;2022-11-23T01:05:55;99039.38;;;18.69;37.03
19150;BME280;9707;49.158;8.632;2022-11-23T01:08:20;99044.91;;;18.67;36.86
19150;BME280;9707;49.158;8.632;2022-11-23T01:10:46;99044.91;;;18.67;36.83
19150;BME280;9707;49.158;8.632;2022-11-23T01:13:11;99040.66;;;18.65;36.90
19150;BME280;9707;49.158;8.632;2022-11-23T01:15:36;99043.34;;;18.65;37.04
19150;BME280;9707;49.158;8.632;2022-11-23T01:18:01;99040.66;;;18.65;36.91
19150;BME280;9707;49.158;8.632;2022-11-23T01:20:27;99041.50;;;18.65;36.81
19150;BME280;9707;49.158;8.632;2022-11-23T01:22:52;99044.50;;;18.62;37.01
19150;BME280;9707;49.158;8.632;2022-11-23T01:25:17;99046.31;;;18.62;36.82
19150;BME280;9707;49.158;8.632;2022-11-23T01:27:43;99048.19;;;18.61;36.74
19150;BME280;9707;49.158;8.632;2022-11-23T01:30:08;99049.16;;;18.60;36.75
19150;BME280;9707;49.158;8.632;2022-11-23T01:32:34;99057.25;;;18.60;37.00
19150;BME280;9707;49.158;8.632;2022-11-23T01:34:59;99048.47;;;18.58;37.68
19150;BME280;9707;49.158;8.632;2022-11-23T01:37:24;99053.59;;;18.61;38.33
19150;BME280;9707;49.158;8.632;2022-11-23T01:39:50;99049.75;;;18.64;38.21
19150;BME280;9707;49.158;8.632;2022-11-23T01:42:15;99050.31;;;18.67;37.10
19150;BME280;9707;49.158;8.632;2022-11-23T01:44:41;99046.75;;;18.67;37.53
19150;BME280;9707;49.158;8.632;2022-11-23T01:47:07;99054.84;;;18.67;37.42
19150;BME280;9707;49.158;8.632;2022-11-23T01:49:42;99058.53;;;18.66;36.93
19150;BME280;9707;49.158;8.632;2022-11-23T01:52:12;99057.69;;;18.65;38.00
19150;BME280;9707;49.158;8.632;2022-11-23T01:54:48;99059.41;;;18.66;36.92
19150;BME280;9707;49.158;8.632;2022-11-23T01:57:24;99058.53;;;18.66;37.97
19150;BME280;9707;49.158;8.632;2022-11-23T01:59:51;99062.25;;;18.65;37.29
19150;BME280;9707;49.158;8.632;2022-11-23T02:02:17;99061.38;;;18.64;36.91
19150;BME280;9707;49.158;8.632;2022-11-23T02:04:45;99066.75;;;18.64;37.43
19150;BME280;9707;49.158;8.632;2022-11-23T02:07:12;99067.63;;;18.65;37.41
19150;BME280;9707;49.158;8.632;2022-11-23T02:09:38;99070.31;;;18.65;37.92
19150;BME280;9707;49.158;8.632;2022-11-23T02:12:11;99069.31;;;18.66;37.25
19150;BME280;9707;49.158;8.632;2022-11-23T02:14:36;99074.84;;;18.64;37.12
19150;BME280;9707;49.158;8.632;2022-11-23T02:17:02;99072.16;;;18.64;37.40
19150;BME280;9707;49.158;8.632;2022-11-23T02:21:54;99075.72;;;18.65;37.38
19150;BME280;9707;49.158;8.632;2022-11-23T02:24:25;99071.31;;;18.64;37.07
19150;BME280;9707;49.158;8.632;2022-11-23T02:26:54;99072.16;;;18.64;37.26
19150;BME280;9707;49.158;8.632;2022-11-23T02:29:22;99069.31;;;18.66;37.06
19150;BME280;9707;49.158;8.632;2022-11-23T02:31:48;99067.63;;;18.65;37.21
19150;BME280;9707;49.158;8.632;2022-11-23T02:34:13;99078.41;;;18.65;36.83
19150;BME280;9707;49.158;8.632;2022-11-23T02:39:39;99073.03;;;18.65;36.94
19150;BME280;9707;49.158;8.632;2022-11-23T02:42:06;99075.00;;;18.63;37.21
19150;BME280;9707;49.158;8.632;2022-11-23T02:44:48;99067.63;;;18.65;37.00
19150;BME280;9707;49.158;8.632;2022-11-23T02:47:17;99074.16;;;18.62;37.58
19150;BME280;9707;49.158;8.632;2022-11-23T02:49:47;99065.94;;;18.64;37.20
19150;BME280;9707;49.158;8.632;2022-11-23T02:52:13;99068.63;;;18.64;37.13
19150;BME280;9707;49.158;8.632;2022-11-23T02:54:39;99065.06;;;18.63;37.11
19150;BME280;9707;49.158;8.632;2022-11-23T02:57:05;99067.91;;;18.62;37.00
19150;BME280;9707;49.158;8.632;2022-11-23T02:59:30;99058.81;;;18.63;37.06
19150;BME280;9707;49.158;8.632;2022-11-23T03:01:57;99055.28;;;18.62;36.84
19150;BME280;9707;49.158;8.632;2022-11-23T03:04:22;99056.13;;;18.63;37.19
19150;BME280;9707;49.158;8.632;2022-11-23T03:06:48;99057.97;;;18.62;37.03
19150;BME280;9707;49.158;8.632;2022-11-23T03:09:13;99052.59;;;18.62;37.33
19150;BME280;9707;49.158;8.632;2022-11-23T03:11:38;99057.13;;;18.62;37.10
19150;BME280;9707;49.158;8.632;2022-11-23T03:14:03;99051.72;;;18.62;37.23
19150;BME280;9707;49.158;8.632;2022-11-23T03:16:29;99049.88;;;18.62;37.28
19150;BME280;9707;49.158;8.632;2022-11-23T03:18:55;99050.03;;;18.61;36.93
19150;BME280;9707;49.158;8.632;2022-11-23T03:21:20;99054.41;;;18.62;37.22
19150;BME280;9707;49.158;8.632;2022-11-23T03:23:45;99051.72;;;18.62;37.07
19150;BME280;9707;49.158;8.632;2022-11-23T03:26:11;99056.97;;;18.63;37.83
19150;BME280;9707;49.158;8.632;2022-11-23T03:28:36;99046.06;;;18.65;37.98
19150;BME280;9707;49.158;8.632;2022-11-23T03:31:01;99054.84;;;18.67;37.48
19150;BME280;9707;49.158;8.632;2022-11-23T03:33:26;99053.84;;;18.68;38.29
19150;BME280;9707;49.158;8.632;2022-11-23T03:35:52;99067.19;;;18.69;37.48
19150;BME280;9707;49.158;8.632;2022-11-23T03:38:17;99066.38;;;18.69;36.96
19150;BME280;9707;49.158;8.632;2022-11-23T03:40:43;99061.94;;;18.68;37.13
19150;BME280;9707;49.158;8.632;2022-11-23T03:43:10;99062.78;;;18.68;37.95
19150;BME280;9707;49.158;8.632;2022-11-23T03:45:35;99053.72;;;18.69;37.27
19150;BME280;9707;49.158;8.632;2022-11-23T03:48:00;99053.56;;;18.71;38.48
19150;BME280;9707;49.158;8.632;2022-11-23T03:50:26;99055.25;;;18.72;38.47
19150;BME280;9707;49.158;8.632;2022-11-23T03:52:53;99056.00;;;18.74;37.29
19150;BME280;9707;49.158;8.632;2022-11-23T03:55:19;99054.25;;;18.73;37.11
19150;BME280;9707;49.158;8.632;2022-11-23T03:57:47;99050.59;;;18.74;36.97
19150;BME280;9707;49.158;8.632;2022-11-23T04:00:12;99046.34;;;18.71;36.86
19150;BME280;9707;49.158;8.632;2022-11-23T04:02:39;99051.88;;;18.70;37.93
19150;BME280;9707;49.158;8.632;2022-11-23T04:05:05;99048.03;;;18.72;38.42
19150;BME280;9707;49.158;8.632;2022-11-23T04:07:30;99050.59;;;18.74;37.74
19150;BME280;9707;49.158;8.632;2022-11-23T04:09:55;99049.75;;;18.73;37.16
19150;BME280;9707;49.158;8.632;2022-11-23T04:12:21;99048.88;;;18.73;36.81
19150;BME280;9707;49.158;8.632;2022-11-23T04:14:46;99046.34;;;18.71;36.93
19150;BME280;9707;49.158;8.632;2022-11-23T04:17:11;99059.97;;;18.70;37.22
19150;BME280;9707;49.158;8.632;2022-11-23T04:19:36;99060.78;;;18.70;36.97
19150;BME280;9707;49.158;8.632;2022-11-23T04:22:02;99056.28;;;18.71;37.23
19150;BME280;9707;49.158;8.632;2022-11-23T04:24:27;99051.75;;;18.71;38.73
19150;BME280;9707;49.158;8.632;2022-11-23T04:26:52;99046.91;;;18.75;39.04
19150;BME280;9707;49.158;8.632;2022-11-23T04:29:17;99044.78;;;18.78;38.17
19150;BME280;9707;49.158;8.632;2022-11-23T04:31:43;99042.94;;;18.79;37.37
19150;BME280;9707;49.158;8.632;2022-11-23T04:34:08;99042.06;;;18.78;37.61
19150;BME280;9707;49.158;8.632;2022-11-23T04:36:34;99041.22;;;18.78;38.03
19150;BME280;9707;49.158;8.632;2022-11-23T04:38:59;99034.66;;;18.80;38.25
19150;BME280;9707;49.158;8.632;2022-11-23T04:41:24;99042.06;;;18.78;37.91
19150;BME280;9707;49.158;8.632;2022-11-23T04:43:50;99042.75;;;18.80;38.17
19150;BME280;9707;49.158;8.632;2022-11-23T04:46:16;99031.97;;;18.80;37.69
19150;BME280;9707;49.158;8.632;2022-11-23T04:48:41;99040.06;;;18.80;37.92
19150;BME280;9707;49.158;8.632;2022-11-23T04:51:07;99042.75;;;18.80;37.70
19150;BME280;9707;49.158;8.632;2022-11-23T04:53:32;99038.38;;;18.79;37.97
19150;BME280;9707;49.158;8.632;2022-11-23T04:55:57;99041.94;;;18.80;38.63
19150;BME280;9707;49.158;8.632;2022-11-23T04:58:23;99035.53;;;18.81;37.55
19150;BME280;9707;49.158;8.632;2022-11-23T05:00:48;99044.63;;;18.80;37.27
19150;BME280;9707;49.158;8.632;2022-11-23T05:03:13;99042.06;;;18.78;37.15
19150;BME280;9707;49.158;8.632;2022-11-23T05:05:40;99050.31;;;18.77;37.01
19150;BME280;9707;49.158;8.632;2022-11-23T05:08:07;99050.44;;;18.75;37.05
19150;BME280;9707;49.158;8.632;2022-11-23T05:10:32;99052.44;;;18.73;37.40
19150;BME280;9707;49.158;8.632;2022-11-23T05:12:58;99053.44;;;18.72;37.86
19150;BME280;9707;49.158;8.632;2022-11-23T05:15:23;99045.22;;;18.74;37.61
19150;BME280;9707;49.158;8.632;2022-11-23T05:17:49;99043.47;;;18.73;37.28
19150;BME280;9707;49.158;8.632;2022-11-23T05:20:14;99036.38;;;18.72;37.26
19150;BME280;9707;49.158;8.632;2022-11-23T05:22:40;99042.78;;;18.71;37.32
19150;BME280;9707;49.158;8.632;2022-11-23T05:25:06;99038.38;;;18.70;37.60
19150;BME280;9707;49.158;8.632;2022-11-23T05:27:31;99040.09;;;18.71;37.25
19150;BME280;9707;49.158;8.632;2022-11-23T05:29:57;99041.09;;;18.70;37.09
19150;BME280;9707;49.158;8.632;2022-11-23T05:32:22;99043.78;;;18.70;37.15
19150;BME280;9707;49.158;8.632;2022-11-23T05:34:47;99042.09;;;18.69;37.26
19150;BME280;9707;49.158;8.632;2022-11-23T05:37:14;99043.06;;;18.68;37.21
19150;BME280;9707;49.158;8.632;2022-11-23T05:39:39;99039.53;;;18.67;37.58
19150;BME280;9707;49.158;8.632;2022-11-23T05:42:04;99042.09;;;18.69;38.58
19150;BME280;9707;49.158;8.632;2022-11-23T05:44:29;99034.69;;;18.71;38.20
19150;BME280;9707;49.158;8.632;2022-11-23T05:46:55;99040.09;;;18.71;37.72
19150;BME280;9707;49.158;8.632;2022-11-23T05:49:20;99046.34;;;18.71;37.16
19150;BME280;9707;49.158;8.632;2022-11-23T05:51:46;99041.09;;;18.70;37.12
19150;BME280;9707;49.158;8.632;2022-11-23T05:54:11;99042.09;;;18.69;37.60
19150;BME280;9707;49.158;8.632;2022-11-23T05:56:36;99039.22;;;18.70;38.05
19150;BME280;9707;49.158;8.632;2022-11-23T05:59:02;99040.09;;;18.71;37.59
19150;BME280;9707;49.158;8.632;2022-11-23T06:01:27;99050.88;;;18.71;37.57
19150;BME280;9707;49.158;8.632;2022-11-23T06:03:52;99045.47;;;18.71;37.99
19150;BME280;9707;49.158;8.632;2022-11-23T06:06:18;99048.03;;;18.72;39.01
19150;BME280;9707;49.158;8.632;2022-11-23T06:08:43;99053.31;;;18.74;38.68
19150;BME280;9707;49.158;8.632;2022-11-23T06:11:08;99050.31;;;18.77;38.42
19150;BME280;9707;49.158;8.632;2022-11-23T06:13:34;99061.97;;;18.77;37.63
19150;BME280;9707;49.158;8.632;2022-11-23T06:15:59;99054.88;;;18.76;37.87
19150;BME280;9707;49.158;8.632;2022-11-23T06:18:24;99054.88;;;18.76;37.18
19150;BME280;9707;49.158;8.632;2022-11-23T06:20:50;99056.84;;;18.74;37.07
19150;BME280;9707;49.158;8.632;2022-11-23T06:23:15;99052.56;;;18.72;37.33
19150;BME280;9707;49.158;8.632;2022-11-23T06:25:40;99058.97;;;18.71;37.75
19150;BME280;9707;49.158;8.632;2022-11-23T06:28:06;99063.38;;;18.72;37.67
19150;BME280;9707;49.158;8.632;2022-11-23T06:30:31;99055.41;;;18.70;37.03
19150;BME280;9707;49.158;8.632;2022-11-23T06:32:57;99052.16;;;18.67;37.12
19150;BME280;9707;49.158;8.632;2022-11-23T06:35:23;99054.00;;;18.66;37.83
19150;BME280;9707;49.158;8.632;2022-11-23T06:37:49;99052.00;;;18.68;37.91
19150;BME280;9707;49.158;8.632;2022-11-23T06:40:15;99056.53;;;18.68;37.21
19150;BME280;9707;49.158;8.632;2022-11-23T06:42:41;99048.75;;;18.65;37.25
19150;BME280;9707;49.158;8.632;2022-11-23T06:45:07;99045.06;;;18.66;37.32
19150;BME280;9707;49.158;8.632;2022-11-23T06:47:32;99057.53;;;18.67;37.41
19150;BME280;9707;49.158;8.632;2022-11-23T06:49:58;99059.41;;;18.66;37.60
19150;BME280;9707;49.158;8.632;2022-11-23T06:52:23;99065.63;;;18.67;37.39
19150;BME280;9707;49.158;8.632;2022-11-23T06:54:48;99060.38;;;18.65;37.91
19150;BME280;9707;49.158;8.632;2022-11-23T06:57:14;99064.94;;;18.65;37.55
19150;BME280;9707;49.158;8.632;2022-11-23T06:59:39;99065.75;;;18.65;37.65
19150;BME280;9707;49.158;8.632;2022-11-23T07:02:04;99074.72;;;18.66;37.24
19150;BME280;9707;49.158;8.632;2022-11-23T07:04:30;99070.59;;;18.62;37.15
19150;BME280;9707;49.158;8.632;2022-11-23T07:06:55;99079.69;;;18.61;36.41
19150;BME280;9707;49.158;8.632;2022-11-23T07:09:21;99083.53;;;18.58;36.40
19150;BME280;9707;49.158;8.632;2022-11-23T07:11:46;99075.88;;;18.54;36.66
19150;BME280;9707;49.158;8.632;2022-11-23T07:14:11;99073.31;;;18.52;38.52
19150;BME280;9707;49.158;8.632;2022-11-23T07:16:37;99079.25;;;18.56;38.51
19150;BME280;9707;49.158;8.632;2022-11-23T07:19:02;99076.28;;;18.59;38.68
19150;BME280;9707;49.158;8.632;2022-11-23T07:21:27;99078.00;;;18.60;38.14
19150;BME280;9707;49.158;8.632;2022-11-23T07:23:53;99084.09;;;18.62;38.59
19150;BME280;9707;49.158;8.632;2022-11-23T07:26:18;99076.84;;;18.62;38.22
19150;BME280;9707;49.158;8.632;2022-11-23T07:28:43;99078.41;;;18.65;38.20
19150;BME280;9707;49.158;8.632;2022-11-23T07:31:09;99081.94;;;18.65;38.21
19150;BME280;9707;49.158;8.632;2022-11-23T07:33:34;99084.66;;;18.65;38.46
19150;BME280;9707;49.158;8.632;2022-11-23T07:36:00;99088.22;;;18.66;37.83
19150;BME280;9707;49.158;8.632;2022-11-23T07:38:27;99084.66;;;18.65;38.44
19150;BME280;9707;49.158;8.632;2022-11-23T07:40:53;99089.91;;;18.67;38.87
19150;BME280;9707;49.158;8.632;2022-11-23T07:43:18;99094.31;;;18.68;38.21
19150;BME280;9707;49.158;8.632;2022-11-23T07:45:43;99105.09;;;18.68;38.75
19150;BME280;9707;49.158;8.632;2022-11-23T07:48:09;99099.56;;;18.69;39.25
19150;BME280;9707;49.158;8.632;2022-11-23T07:50:36;99103.97;;;18.70;39.39
19150;BME280;9707;49.158;8.632;2022-11-23T07:53:03;99103.69;;;18.73;39.63
19150;BME280;9707;49.158;8.632;2022-11-23T07:55:28;99098.16;;;18.75;39.53
19150;BME280;9707;49.158;8.632;2022-11-23T07:57:56;99093.47;;;18.77;39.20
19150;BME280;9707;49.158;8.632;2022-11-23T08:00:23;99089.94;;;18.76;39.22
19150;BME280;9707;49.158;8.632;2022-11-23T08:02:49;99102.28;;;18.79;39.31
19150;BME280;9707;49.158;8.632;2022-11-23T08:05:15;99098.59;;;18.80;39.69
19150;BME280;9707;49.158;8.632;2022-11-23T08:07:41;99092.19;;;18.81;39.07
19150;BME280;9707;49.158;8.632;2022-11-23T08:10:07;99096.59;;;18.82;38.48
19150;BME280;9707;49.158;8.632;2022-11-23T08:12:33;99094.88;;;18.81;37.79
19150;BME280;9707;49.158;8.632;2022-11-23T08:14:59;99089.50;;;18.81;39.39
19150;BME280;9707;49.158;8.632;2022-11-23T08:17:24;99094.88;;;18.81;38.97
19150;BME280;9707;49.158;8.632;2022-11-23T08:19:49;99089.34;;;18.82;38.51
19150;BME280;9707;49.158;8.632;2022-11-23T08:22:15;99088.50;;;18.82;39.10
19150;BME280;9707;49.158;8.632;2022-11-23T08:24:40;99087.50;;;18.83;39.42
19150;BME280;9707;49.158;8.632;2022-11-23T08:27:06;99084.66;;;18.84;39.38
19150;BME280;9707;49.158;8.632;2022-11-23T08:29:31;99088.09;;;18.86;39.29
19150;BME280;9707;49.158;8.632;2022-11-23T08:31:56;99076.28;;;18.87;40.09
19150;BME280;9707;49.158;8.632;2022-11-23T08:34:22;99082.25;;;18.91;39.48
19150;BME280;9707;49.158;8.632;2022-11-23T08:36:47;99085.81;;;18.91;39.11
19150;BME280;9707;49.158;8.632;2022-11-23T08:39:12;99087.38;;;18.94;38.78
19150;BME280;9707;49.158;8.632;2022-11-23T08:41:39;99091.22;;;18.91;38.35
19150;BME280;9707;49.158;8.632;2022-11-23T08:44:04;99089.19;;;18.93;39.20
19150;BME280;9707;49.158;8.632;2022-11-23T08:46:32;99088.34;;;18.93;38.26
19150;BME280;9707;49.158;8.632;2022-11-23T08:49:00;99091.22;;;18.91;37.83
19150;BME280;9707;49.158;8.632;2022-11-23T08:51:25;99092.03;;;18.92;38.12
19150;BME280;9707;49.158;8.632;2022-11-23T08:53:51;99095.75;;;18.91;37.58
19150;BME280;9707;49.158;8.632;2022-11-23T08:56:16;99087.78;;;18.89;37.29
19150;BME280;9707;49.158;8.632;2022-11-23T08:58:44;99087.78;;;18.89;37.68
19150;BME280;9707;49.158;8.632;2022-11-23T09:01:12;99093.31;;;18.88;37.22
19150;BME280;9707;49.158;8.632;2022-11-23T09:03:38;99086.09;;;18.88;37.28
19150;BME280;9707;49.158;8.632;2022-11-23T09:06:04;99099.72;;;18.87;37.16
19150;BME280;9707;49.158;8.632;2022-11-23T09:08:29;99088.09;;;18.86;37.00
19150;BME280;9707;49.158;8.632;2022-11-23T09:11:09;99086.34;;;18.85;37.51
19150;BME280;9707;49.158;8.632;2022-11-23T09:13:35;99095.19;;;18.87;37.75
19150;BME280;9707;49.158;8.632;2022-11-23T09:16:02;99088.78;;;18.88;37.86
19150;BME280;9707;49.158;8.632;2022-11-23T09:18:28;99094.03;;;18.90;37.36
19150;BME280;9707;49.158;8.632;2022-11-23T09:20:55;99096.75;;;18.90;38.17
19150;BME280;9707;49.158;8.632;2022-11-23T09:23:20;99097.44;;;18.92;37.82
19150;BME280;9707;49.158;8.632;2022-11-23T09:25:46;99098.31;;;18.92;37.51
19150;BME280;9707;49.158;8.632;2022-11-23T09:28:13;99093.59;;;18.94;37.78
19150;BME280;9707;49.158;8.632;2022-11-23T09:30:39;99094.47;;;18.95;37.38
19150;BME280;9707;49.158;8.632;2022-11-23T09:33:05;99091.78;;;18.95;37.59
19150;BME280;9707;49.158;8.632;2022-11-23T09:35:32;99095.16;;;18.97;37.29
19150;BME280;9707;49.158;8.632;2022-11-23T09:37:57;99101.28;;;18.99;37.49
19150;BME280;9707;49.158;8.632;2022-11-23T09:40:24;99095.16;;;18.97;37.01
19150;BME280;9707;49.158;8.632;2022-11-23T09:43:04;99094.34;;;18.96;37.04
19150;BME280;9707;49.158;8.632;2022-11-23T09:45:49;99100.28;;;19.00;38.50
19150;BME280;9707;49.158;8.632;2022-11-23T09:48:46;99093.88;;;19.01;38.57
19150;BME280;9707;49.158;8.632;2022-11-23T09:51:18;99099.97;;;19.03;38.94
19150;BME280;9707;49.158;8.632;2022-11-23T09:53:49;99091.59;;;19.06;38.87
19150;BME280;9707;49.158;8.632;2022-11-23T09:56:26;99096.00;;;19.07;38.24
19150;BME280;9707;49.158;8.632;2022-11-23T09:58:55;99090.34;;;19.10;38.36
19150;BME280;9707;49.158;8.632;2022-11-23T10:01:21;99090.34;;;19.10;38.55
19150;BME280;9707;49.158;8.632;2022-11-23T10:03:47;99093.72;;;19.12;38.48
19150;BME280;9707;49.158;8.632;2022-11-23T10:06:24;99086.31;;;19.14;38.76
19150;BME280;9707;49.158;8.632;2022-11-23T10:09:24;99093.47;;;19.15;37.72
19150;BME280;9707;49.158;8.632;2022-11-23T10:23:02;99081.94;;;19.13;38.22
19150;BME280;9707;49.158;8.632;2022-11-23T10:25:33;99074.56;;;19.15;37.57
19150;BME280;9707;49.158;8.632;2022-11-23T10:28:10;99070.84;;;19.16;38.12
19150;BME280;9707;49.158;8.632;2022-11-23T10:30:37;99078.66;;;19.19;38.99
19150;BME280;9707;49.158;8.632;2022-11-23T10:33:16;99075.81;;;19.20;37.93
19150;BME280;9707;49.158;8.632;2022-11-23T10:35:45;99079.28;;;19.22;38.05
19150;BME280;9707;49.158;8.632;2022-11-23T10:38:15;99085.38;;;19.24;37.93
19150;BME280;9707;49.158;8.632;2022-11-23T10:40:57;99070.03;;;19.25;37.38
19150;BME280;9707;49.158;8.632;2022-11-23T10:46:26;99065.31;;;19.27;37.13
19150;BME280;9707;49.158;8.632;2022-11-23T10:48:53;99059.91;;;19.27;37.57
19150;BME280;9707;49.158;8.632;2022-11-23T10:51:31;99064.19;;;19.29;37.14
19150;BME280;9707;49.158;8.632;2022-11-23T10:54:00;99052.53;;;19.29;37.63
19150;BME280;9707;49.158;8.632;2022-11-23T10:56:27;99055.94;;;19.31;38.32
19150;BME280;9707;49.158;8.632;2022-11-23T10:58:53;99054.81;;;19.33;37.63
19150;BME280;9707;49.158;8.632;2022-11-23T11:01:21;99056.34;;;19.36;38.18
19150;BME280;9707;49.158;8.632;2022-11-23T11:03:49;99055.34;;;19.37;37.70
19150;BME280;9707;49.158;8.632;2022-11-23T11:06:26;99052.50;;;19.38;36.89
19150;BME280;9707;49.158;8.632;2022-11-23T11:08:57;99046.25;;;19.38;36.52
19150;BME280;9707;49.158;8.632;2022-11-23T11:11:25;99038.28;;;19.36;36.79
19150;BME280;9707;49.158;8.632;2022-11-23T11:16:46;99035.44;;;19.38;36.97
19150;BME280;9707;49.158;8.632;2022-11-23T11:19:31;99022.66;;;19.40;37.48
19150;BME280;9707;49.158;8.632;2022-11-23T11:21:58;99028.06;;;19.40;37.30
19150;BME280;9707;49.158;8.632;2022-11-23T11:24:32;99018.81;;;19.42;36.76
19150;BME280;9707;49.158;8.632;2022-11-23T11:27:03;99019.66;;;19.43;37.38
19150;BME280;9707;49.158;8.632;2022-11-23T11:29:38;99004.19;;;19.45;36.90
19150;BME280;9707;49.158;8.632;2022-11-23T11:34:48;99001.16;;;19.48;36.41
19150;BME280;9707;49.158;8.632;2022-11-23T11:37:31;98995.75;;;19.48;36.51
19150;BME280;9707;49.158;8.632;2022-11-23T11:43:07;98988.38;;;19.50;36.72
19150;BME280;9707;49.158;8.632;2022-11-23T11:45:38;98981.97;;;19.51;36.10
19150;BME280;9707;49.158;8.632;2022-11-23T11:48:27;98974.88;;;19.50;36.77
19150;BME280;9707;49.158;8.632;2022-11-23T11:51:03;98976.44;;;19.52;36.92
19150;BME280;9707;49.158;8.632;2022-11-23T11:53:44;98974.41;;;19.54;36.25
19150;BME280;9707;49.158;8.632;2022-11-23T11:56:21;98963.59;;;19.54;36.35
19150;BME280;9707;49.158;8.632;2022-11-23T11:58:57;98968.88;;;19.56;36.19
19150;BME280;9707;49.158;8.632;2022-11-23T12:01:37;98971.56;;;19.56;36.45
19150;BME280;9707;49.158;8.632;2022-11-23T12:04:20;98965.16;;;19.57;35.64
19150;BME280;9707;49.158;8.632;2022-11-23T12:06:53;98961.44;;;19.58;36.23
19150;BME280;9707;49.158;8.632;2022-11-23T12:09:28;98964.00;;;19.59;35.91
19150;BME280;9707;49.158;8.632;2022-11-23T12:11:56;98959.28;;;19.61;36.07
19150;BME280;9707;49.158;8.632;2022-11-23T12:14:22;98964.56;;;19.63;35.28
19150;BME280;9707;49.158;8.632;2022-11-23T12:17:22;98952.91;;;19.62;35.38
19150;BME280;9707;49.158;8.632;2022-11-23T12:22:34;98956.16;;;19.66;37.06
19150;BME280;9707;49.158;8.632;2022-11-23T12:28:01;98944.22;;;19.68;36.00
19150;BME280;9707;49.158;8.632;2022-11-23T12:30:50;98947.75;;;19.69;36.22
19150;BME280;9707;49.158;8.632;2022-11-23T12:41:54;98948.13;;;19.74;36.12
19150;BME280;9707;49.158;8.632;2022-11-23T12:44:25;98944.47;;;19.75;35.06
19150;BME280;9707;49.158;8.632;2022-11-23T12:50:38;98930.94;;;19.75;35.29
19150;BME280;9707;49.158;8.632;2022-11-23T12:56:03;98920.84;;;19.77;36.24
19150;BME280;9707;49.158;8.632;2022-11-23T12:58:31;98925.22;;;19.78;35.80
19150;BME280;9707;49.158;8.632;2022-11-23T13:03:55;98921.50;;;19.79;35.45
19150;BME280;9707;49.158;8.632;2022-11-23T13:12:31;98907.31;;;19.77;34.51
19150;BME280;9707;49.158;8.632;2022-11-23T13:21:36;98914.13;;;19.81;35.73
19150;BME280;9707;49.158;8.632;2022-11-23T13:24:03;98907.00;;;19.80;34.94
19150;BME280;9707;49.158;8.632;2022-11-23T13:26:29;98902.47;;;19.80;35.31
19150;BME280;9707;49.158;8.632;2022-11-23T13:28:57;98905.00;;;19.82;35.53
19150;BME280;9707;49.158;8.632;2022-11-23T13:31:28;98899.28;;;19.85;35.70
19150;BME280;9707;49.158;8.632;2022-11-23T13:34:00;98887.50;;;19.86;35.69
19150;BME280;9707;49.158;8.632;2022-11-23T13:38:55;98879.78;;;19.91;36.19
19150;BME280;9707;49.158;8.632;2022-11-23T13:43:58;98873.03;;;19.95;35.96
19150;BME280;9707;49.158;8.632;2022-11-23T13:46:34;98877.63;;;19.94;34.79
19150;BME280;9707;49.158;8.632;2022-11-23T13:49:00;98876.91;;;19.92;35.17
19150;BME280;9707;49.158;8.632;2022-11-23T13:51:31;98870.66;;;19.92;34.40
19150;BME280;9707;49.158;8.632;2022-11-23T13:54:03;98863.56;;;19.91;36.20
19150;BME280;9707;49.158;8.632;2022-11-23T13:56:38;98870.66;;;19.92;35.42
19150;BME280;9707;49.158;8.632;2022-11-23T14:02:01;98856.44;;;19.90;34.82
19150;BME280;9707;49.158;8.632;2022-11-23T14:04:31;98855.47;;;19.91;35.10
19150;BME280;9707;49.158;8.632;2022-11-23T14:07:03;98855.47;;;19.91;34.96
19150;BME280;9707;49.158;8.632;2022-11-23T14:09:50;98852.03;;;19.89;35.39
19150;BME280;9707;49.158;8.632;2022-11-23T14:12:49;98844.81;;;19.89;35.16
19150;BME280;9707;49.158;8.632;2022-11-23T14:15:18;98842.09;;;19.89;36.08
19150;BME280;9707;49.158;8.632;2022-11-23T14:17:59;98838.53;;;19.89;35.02
19150;BME280;9707;49.158;8.632;2022-11-23T14:20:44;98839.25;;;19.91;35.73
19150;BME280;9707;49.158;8.632;2022-11-23T14:31:42;98828.34;;;19.83;35.20
19150;BME280;9707;49.158;8.632;2022-11-23T14:34:27;98828.19;;;19.84;35.24
19150;BME280;9707;49.158;8.632;2022-11-23T14:37:04;98825.34;;;19.86;35.32
19150;BME280;9707;49.158;8.632;2022-11-23T14:42:19;98826.31;;;19.85;35.81